createdAt,value
2022-09-28T17:46:47.321Z,98.00
2022-09-28T17:49:35.217Z,93.40
2022-09-28T17:52:23.220Z,91.90
2022-09-28T17:55:11.906Z,90.60
2022-09-28T17:58:01.557Z,89.40
2022-09-28T18:00:52.443Z,87.90
2022-09-28T18:03:40.298Z,86.80
2022-09-28T18:06:28.201Z,85.80
2022-09-28T18:09:16.160Z,84.90
2022-09-28T18:12:05.651Z,84.30
2022-09-28T18:14:53.765Z,83.80
2022-09-28T18:17:41.608Z,83.20
2022-09-28T18:20:29.660Z,82.80
2022-09-28T18:23:17.766Z,82.50
2022-09-28T18:26:13.948Z,82.00
2022-09-28T18:29:01.677Z,81.90
2022-09-28T18:31:49.488Z,82.30
2022-09-28T18:34:38.025Z,81.20
2022-09-28T18:37:25.768Z,81.00
2022-09-28T18:40:13.899Z,81.00
2022-09-28T18:43:02.790Z,80.70
2022-09-28T18:45:50.516Z,80.50
2022-09-28T18:48:40.487Z,80.30
2022-09-28T18:51:28.530Z,80.00
2022-09-28T18:54:17.006Z,80.00
2022-09-28T18:57:05.752Z,79.90
2022-09-28T18:59:53.525Z,79.80
2022-09-28T19:02:41.381Z,79.70
2022-09-28T19:05:29.247Z,79.40
2022-09-28T19:08:17.002Z,79.30
2022-09-28T19:11:14.677Z,79.20
2022-09-28T19:14:03.596Z,79.20
2022-09-28T19:16:51.329Z,79.10
2022-09-28T19:19:39.320Z,79.00
2022-09-28T19:22:27.128Z,78.90
2022-09-28T19:25:15.779Z,78.80
2022-09-28T19:28:03.493Z,78.70
2022-09-28T19:30:59.272Z,78.60
2022-09-28T19:33:48.136Z,78.50
2022-09-28T19:36:35.913Z,78.40
2022-09-28T19:39:23.698Z,78.40
2022-09-28T19:42:11.414Z,78.10
2022-09-28T19:44:59.159Z,78.20
2022-09-28T19:47:49.101Z,78.10
2022-09-28T19:50:36.910Z,78.10
2022-09-28T19:53:26.849Z,78.00
2022-09-28T19:56:16.533Z,78.00
2022-09-28T19:59:04.706Z,77.80
2022-09-28T20:01:55.719Z,77.70
2022-09-28T20:04:43.650Z,77.80
2022-09-28T20:07:33.285Z,77.60
2022-09-28T20:10:21.099Z,77.50
2022-09-28T20:13:08.840Z,77.60
2022-09-28T20:15:56.621Z,77.30
2022-09-28T20:18:50.257Z,77.10
2022-09-28T20:21:38.086Z,77.10
2022-09-28T20:24:25.966Z,77.10
2022-09-28T20:27:13.768Z,77.20
2022-09-28T20:30:01.768Z,77.10
2022-09-28T20:32:49.782Z,76.80
2022-09-28T20:35:40.350Z,76.90
2022-09-28T20:38:28.072Z,77.00
2022-09-28T20:41:18.431Z,76.90
2022-09-28T20:44:06.883Z,76.80
2022-09-28T20:46:56.552Z,76.90
2022-09-28T20:49:44.618Z,76.70
2022-09-28T20:52:32.429Z,76.60
2022-09-28T20:55:20.206Z,76.80
2022-09-28T20:58:07.954Z,76.50
2022-09-28T21:01:20.890Z,76.50
2022-09-28T21:04:10.289Z,76.70
2022-09-28T21:06:57.999Z,77.10
2022-09-28T21:09:45.805Z,76.60
2022-09-28T21:12:34.193Z,76.40
2022-09-28T21:15:21.907Z,76.30
2022-09-28T21:18:09.653Z,76.10
2022-09-28T21:20:57.433Z,76.10
2022-09-28T21:23:45.494Z,76.00
2022-09-28T21:26:34.944Z,75.90
2022-09-28T21:29:22.705Z,75.80
2022-09-28T21:32:10.471Z,75.80
2022-09-28T21:34:58.285Z,75.60
2022-09-28T21:37:46.568Z,75.50
2022-09-28T21:40:34.428Z,75.30
2022-09-28T21:43:23.133Z,75.30
2022-09-28T21:46:11.297Z,75.20
2022-09-28T21:48:59.269Z,75.10
2022-09-28T21:51:47.066Z,75.70
2022-09-28T21:54:37.233Z,74.90
2022-09-28T21:57:24.981Z,74.90
2022-09-28T22:00:18.552Z,74.70
2022-09-28T22:03:06.439Z,74.70
2022-09-28T22:05:54.266Z,74.60
2022-09-28T22:08:42.289Z,74.50
2022-09-28T22:11:30.021Z,74.40
2022-09-28T22:14:17.788Z,74.30
2022-09-28T22:17:05.504Z,74.30
2022-09-28T22:19:53.339Z,74.10
2022-09-28T22:22:41.057Z,74.20
2022-09-28T22:25:28.827Z,74.10
2022-09-28T22:28:16.573Z,74.00
2022-09-28T22:31:05.069Z,73.90
2022-09-28T22:33:53.524Z,73.90
2022-09-28T22:36:41.308Z,73.80
2022-09-28T22:39:34.335Z,73.80
2022-09-28T22:42:25.138Z,73.70
2022-09-28T22:45:12.934Z,73.60
2022-09-28T22:48:00.800Z,74.30
2022-09-28T22:50:50.671Z,73.60
2022-09-28T22:53:38.522Z,73.50
2022-09-28T22:56:26.325Z,73.40
2022-09-28T22:59:14.089Z,73.30
2022-09-28T23:02:01.887Z,73.20
2022-09-28T23:04:49.692Z,73.20
2022-09-28T23:07:37.970Z,72.90
2022-09-28T23:10:25.719Z,72.90
2022-09-28T23:13:15.520Z,72.90
2022-09-28T23:16:10.609Z,72.80
2022-09-28T23:18:58.426Z,72.70
2022-09-28T23:21:46.216Z,72.70
2022-09-28T23:24:33.955Z,72.70
2022-09-28T23:27:21.735Z,72.50
2022-09-28T23:30:10.073Z,72.50
2022-09-28T23:32:57.825Z,72.50
2022-09-28T23:35:45.759Z,72.50
2022-09-28T23:38:33.518Z,72.40
2022-09-28T23:41:21.320Z,72.40
2022-09-28T23:44:09.084Z,72.20
2022-09-28T23:46:57.195Z,72.20
2022-09-28T23:49:44.981Z,72.20
2022-09-28T23:52:33.092Z,72.10
2022-09-28T23:55:20.889Z,72.10
2022-09-28T23:58:09.339Z,72.00
